Time;durP1;ratioP1;P1;durP2;ratioP2;P2;SDS_P1;SDS_P2;PMS_P1;PMS_P2;Temp;Humidity;BMP_temperature;BMP_pressure;BME280_temperature;BME280_humidity;BME280_pressure;Samples;Min_cycle;Max_cycle;Signal;HPM_P1;HPM_P2
2022/11/13 00:01:24;;;;;;;;;5.75;5.50;;;;;;;;4981781;28;51146;-58
2022/11/13 00:04:09;;;;;;;;;6.25;6.25;;;;;;;;4981646;28;51165;-59
2022/11/13 00:06:53;;;;;;;;;9.75;7.25;;;;;;;;4981722;28;51055;-58
2022/11/13 00:09:38;;;;;;;;;10.75;6.75;;;;;;;;4981670;28;51109;-57
2022/11/13 00:12:22;;;;;;;;;7.25;6.75;;;;;;;;4981680;28;51395;-59
2022/11/13 00:15:07;;;;;;;;;8.25;8.25;;;;;;;;4981225;28;51460;-59
2022/11/13 00:17:51;;;;;;;;;11.75;8.75;;;;;;;;4981270;28;51141;-57
2022/11/13 00:20:35;;;;;;;;;9.00;8.00;;;;;;;;4994387;28;51067;-58
2022/11/13 00:23:20;;;;;;;;;10.50;8.50;;;;;;;;5001100;28;51449;-58
2022/11/13 00:26:04;;;;;;;;;16.75;11.50;;;;;;;;5000518;28;51117;-59
2022/11/13 00:29:00;;;;;;;;;13.00;10.75;;;;;;;;4991144;28;51202;-56
2022/11/13 00:31:44;;;;;;;;;13.75;12.25;;;;;;;;4981802;28;51166;-58
2022/11/13 00:34:28;;;;;;;;;11.50;11.00;;;;;;;;4982272;28;50996;-57
2022/11/13 00:37:13;;;;;;;;;13.75;11.00;;;;;;;;4996024;28;51132;-59
2022/11/13 00:39:57;;;;;;;;;11.25;10.50;;;;;;;;4993245;28;51536;-58
2022/11/13 00:42:42;;;;;;;;;11.25;8.75;;;;;;;;4988301;28;51100;-58
2022/11/13 00:45:26;;;;;;;;;10.75;8.00;;;;;;;;4981480;28;51201;-57
2022/11/13 00:48:10;;;;;;;;;9.75;7.75;;;;;;;;4980947;28;51458;-58
2022/11/13 00:50:55;;;;;;;;;7.75;6.50;;;;;;;;4981242;28;51053;-58
2022/11/13 00:53:39;;;;;;;;;8.50;7.00;;;;;;;;4988866;28;51137;-58
2022/11/13 00:56:24;;;;;;;;;7.25;6.25;;;;;;;;4979754;28;51204;-58
2022/11/13 00:59:09;;;;;;;;;12.00;7.75;;;;;;;;4981288;28;51114;-58
2022/11/13 01:01:53;;;;;;;;;7.00;7.00;;;;;;;;4986877;28;51446;-59
2022/11/13 01:04:37;;;;;;;;;8.75;8.00;;;;;;;;4984705;28;51596;-58
2022/11/13 01:07:22;;;;;;;;;9.75;8.00;;;;;;;;5000361;28;51207;-58
2022/11/13 01:10:07;;;;;;;;;8.00;7.00;;;;;;;;5000652;28;51075;-58
2022/11/13 01:12:51;;;;;;;;;6.25;5.00;;;;;;;;5000463;28;51185;-58
2022/11/13 01:15:39;;;;;;;;;10.25;7.75;;;;;;;;5000578;28;51181;-58
2022/11/13 01:18:23;;;;;;;;;6.25;6.00;;;;;;;;5000356;28;51031;-58
2022/11/13 01:21:11;;;;;;;;;7.50;7.25;;;;;;;;5000028;28;51150;-58
2022/11/13 01:23:55;;;;;;;;;5.00;5.00;;;;;;;;5000787;28;51299;-59
2022/11/13 01:26:40;;;;;;;;;6.75;6.75;;;;;;;;4999588;28;51047;-58
2022/11/13 01:29:24;;;;;;;;;7.25;5.75;;;;;;;;5000099;28;51547;-58
2022/11/13 01:32:09;;;;;;;;;6.00;6.00;;;;;;;;4999974;28;51179;-58
2022/11/13 01:34:53;;;;;;;;;9.50;7.00;;;;;;;;5000530;28;51197;-56
2022/11/13 01:37:38;;;;;;;;;9.25;7.50;;;;;;;;4995824;28;51189;-57
2022/11/13 01:40:22;;;;;;;;;6.75;6.75;;;;;;;;4992210;28;51153;-60
2022/11/13 01:43:22;;;;;;;;;7.75;7.50;;;;;;;;4988671;28;51410;-58
2022/11/13 01:46:19;;;;;;;;;6.50;6.50;;;;;;;;4979877;28;52137;-58
2022/11/13 01:49:14;;;;;;;;;9.25;7.00;;;;;;;;4980565;28;51027;-57
2022/11/13 01:52:19;;;;;;;;;7.00;7.00;;;;;;;;4979724;28;51471;-58
2022/11/13 01:55:15;;;;;;;;;7.25;6.75;;;;;;;;4987379;28;51167;-59
2022/11/13 01:58:00;;;;;;;;;12.00;7.75;;;;;;;;4979541;28;51181;-59
2022/11/13 02:00:44;;;;;;;;;10.00;6.75;;;;;;;;4980178;28;51118;-59
2022/11/13 02:03:28;;;;;;;;;9.00;7.00;;;;;;;;4979569;28;52025;-59
2022/11/13 02:06:13;;;;;;;;;8.50;7.00;;;;;;;;4979343;28;51243;-58
2022/11/13 02:08:57;;;;;;;;;12.25;10.00;;;;;;;;4982654;28;51159;-58
2022/11/13 02:11:41;;;;;;;;;8.25;7.75;;;;;;;;4979416;28;51546;-59
2022/11/13 02:14:27;;;;;;;;;7.50;7.50;;;;;;;;4979284;28;51223;-58
2022/11/13 02:17:17;;;;;;;;;13.25;9.50;;;;;;;;4979227;28;51163;-58
2022/11/13 02:20:03;;;;;;;;;11.25;9.25;;;;;;;;4979565;28;51378;-58
2022/11/13 02:22:58;;;;;;;;;8.00;7.75;;;;;;;;4987748;28;51099;-59
2022/11/13 02:25:43;;;;;;;;;12.00;10.25;;;;;;;;4987510;28;51141;-58
2022/11/13 02:28:28;;;;;;;;;11.50;8.75;;;;;;;;4979229;28;51000;-58
2022/11/13 02:31:12;;;;;;;;;8.75;6.25;;;;;;;;4983773;28;51061;-58
2022/11/13 02:33:57;;;;;;;;;7.50;6.25;;;;;;;;4990858;28;51120;-57
2022/11/13 02:36:41;;;;;;;;;8.75;7.50;;;;;;;;4983539;28;51200;-57
2022/11/13 02:39:26;;;;;;;;;13.25;10.75;;;;;;;;4995216;28;51079;-59
2022/11/13 02:42:10;;;;;;;;;13.00;10.25;;;;;;;;5002965;28;51470;-59
2022/11/13 02:44:54;;;;;;;;;8.00;8.00;;;;;;;;5003135;28;51052;-58
2022/11/13 02:47:39;;;;;;;;;10.50;10.00;;;;;;;;5003067;28;51139;-59
2022/11/13 02:50:23;;;;;;;;;12.25;12.25;;;;;;;;5003459;28;51328;-56
2022/11/13 02:53:08;;;;;;;;;14.25;11.25;;;;;;;;5003067;28;51476;-58
2022/11/13 02:55:52;;;;;;;;;14.25;11.00;;;;;;;;5002843;28;51580;-58
2022/11/13 02:58:36;;;;;;;;;11.25;10.00;;;;;;;;5003311;28;51420;-59
2022/11/13 03:01:21;;;;;;;;;15.25;10.00;;;;;;;;5002811;28;51280;-58
2022/11/13 03:04:05;;;;;;;;;4.50;2.00;;;;;;;;5003169;28;51036;-58
2022/11/13 03:06:49;;;;;;;;;12.00;12.00;;;;;;;;5002579;28;51475;-57
2022/11/13 03:09:34;;;;;;;;;10.00;8.75;;;;;;;;5002784;28;51248;-58
2022/11/13 03:12:18;;;;;;;;;11.75;9.75;;;;;;;;4983065;28;51147;-57
2022/11/13 03:15:03;;;;;;;;;7.75;7.75;;;;;;;;4983135;28;51027;-58
2022/11/13 03:17:47;;;;;;;;;11.00;9.25;;;;;;;;4982694;28;52217;-58
2022/11/13 03:20:34;;;;;;;;;10.00;9.00;;;;;;;;4982943;28;51402;-58
2022/11/13 03:23:18;;;;;;;;;9.75;7.75;;;;;;;;4990135;28;51546;-58
2022/11/13 03:26:09;;;;;;;;;9.75;8.50;;;;;;;;4982351;28;51138;-58
2022/11/13 03:28:53;;;;;;;;;12.00;10.25;;;;;;;;4982890;28;51208;-58
2022/11/13 03:31:38;;;;;;;;;11.75;10.25;;;;;;;;4989005;28;51186;-58
2022/11/13 03:34:22;;;;;;;;;14.75;10.75;;;;;;;;4989555;28;51135;-58
2022/11/13 03:37:07;;;;;;;;;12.00;9.50;;;;;;;;4982392;28;51162;-59
2022/11/13 03:39:51;;;;;;;;;13.75;11.75;;;;;;;;4992664;28;51044;-58
2022/11/13 03:42:36;;;;;;;;;11.00;8.25;;;;;;;;4988079;28;51102;-59
2022/11/13 03:45:20;;;;;;;;;13.25;10.50;;;;;;;;4981753;28;51225;-59
2022/11/13 03:48:04;;;;;;;;;12.00;11.00;;;;;;;;4982150;28;51379;-59
2022/11/13 03:50:50;;;;;;;;;14.00;11.25;;;;;;;;4981369;28;51175;-59
2022/11/13 03:53:35;;;;;;;;;11.00;10.75;;;;;;;;4989710;28;51122;-58
2022/11/13 03:56:19;;;;;;;;;14.25;13.00;;;;;;;;4981862;28;51372;-57
2022/11/13 03:59:03;;;;;;;;;15.25;12.75;;;;;;;;4982104;28;51161;-59
2022/11/13 04:01:48;;;;;;;;;10.75;10.50;;;;;;;;4981841;28;51251;-59
2022/11/13 04:04:32;;;;;;;;;17.00;13.00;;;;;;;;4981588;28;51119;-57
2022/11/13 04:07:16;;;;;;;;;16.75;14.00;;;;;;;;4981668;28;51460;-59
2022/11/13 04:10:01;;;;;;;;;16.75;14.75;;;;;;;;4978487;28;51398;-57
2022/11/13 04:12:45;;;;;;;;;16.00;14.00;;;;;;;;4989531;28;51530;-57
2022/11/13 04:15:30;;;;;;;;;16.50;15.75;;;;;;;;4999860;28;51358;-56
2022/11/13 04:18:14;;;;;;;;;15.75;15.00;;;;;;;;4988576;28;50960;-57
2022/11/13 04:20:59;;;;;;;;;20.50;17.75;;;;;;;;4981030;28;51476;-55
2022/11/13 04:23:43;;;;;;;;;20.50;17.25;;;;;;;;4981427;28;51368;-56
2022/11/13 04:26:28;;;;;;;;;21.25;17.25;;;;;;;;4980774;28;51203;-57
2022/11/13 04:29:12;;;;;;;;;20.00;18.75;;;;;;;;4981763;28;51135;-57
2022/11/13 04:31:57;;;;;;;;;23.75;21.50;;;;;;;;4981067;28;51165;-57
2022/11/13 04:34:41;;;;;;;;;21.50;20.75;;;;;;;;4980824;28;51139;-57
2022/11/13 04:37:26;;;;;;;;;23.50;20.75;;;;;;;;4981423;28;51015;-57
2022/11/13 04:40:10;;;;;;;;;28.25;21.50;;;;;;;;4969491;28;51194;-60
2022/11/13 04:42:54;;;;;;;;;20.50;19.00;;;;;;;;4995045;28;51118;-58
2022/11/13 04:45:38;;;;;;;;;22.00;16.50;;;;;;;;4981386;28;51186;-55
2022/11/13 04:48:23;;;;;;;;;15.00;14.00;;;;;;;;4981162;28;51588;-59
2022/11/13 04:51:07;;;;;;;;;16.50;16.00;;;;;;;;4980906;28;51184;-58
2022/11/13 04:53:52;;;;;;;;;15.00;14.25;;;;;;;;4981620;28;51040;-58
2022/11/13 04:56:36;;;;;;;;;14.75;13.75;;;;;;;;4987772;28;51565;-58
2022/11/13 04:59:20;;;;;;;;;19.25;16.25;;;;;;;;4980809;28;51082;-58
2022/11/13 05:02:05;;;;;;;;;14.75;14.75;;;;;;;;4980126;28;51227;-58
2022/11/13 05:04:49;;;;;;;;;16.50;14.50;;;;;;;;4987488;28;51182;-58
2022/11/13 05:07:33;;;;;;;;;16.50;14.50;;;;;;;;4981032;28;51171;-57
2022/11/13 05:10:18;;;;;;;;;18.00;12.25;;;;;;;;4980475;28;51224;-57
2022/11/13 05:13:02;;;;;;;;;14.75;13.00;;;;;;;;4981023;28;51075;-57
2022/11/13 05:15:47;;;;;;;;;16.00;16.00;;;;;;;;4980737;28;51131;-56
2022/11/13 05:18:32;;;;;;;;;16.75;15.75;;;;;;;;4980795;28;51114;-57
2022/11/13 05:21:16;;;;;;;;;16.75;15.75;;;;;;;;4980155;28;51450;-58
2022/11/13 05:24:01;;;;;;;;;16.75;12.75;;;;;;;;4980666;28;51189;-57
2022/11/13 05:26:45;;;;;;;;;17.25;13.50;;;;;;;;4992813;28;51441;-57
2022/11/13 05:29:30;;;;;;;;;13.25;13.00;;;;;;;;4999963;28;51395;-57
2022/11/13 05:32:14;;;;;;;;;17.50;15.75;;;;;;;;5000263;28;51079;-56
2022/11/13 05:34:58;;;;;;;;;21.50;17.75;;;;;;;;5000122;28;51090;-58
2022/11/13 05:37:43;;;;;;;;;24.00;22.00;;;;;;;;4996449;28;52057;-57
2022/11/13 05:40:28;;;;;;;;;28.50;24.00;;;;;;;;4986274;28;51150;-57
2022/11/13 05:43:12;;;;;;;;;21.25;20.50;;;;;;;;4983888;28;51087;-57
2022/11/13 05:46:07;;;;;;;;;21.00;18.25;;;;;;;;4978190;28;51516;-58
2022/11/13 05:49:00;;;;;;;;;24.00;20.75;;;;;;;;4999729;28;51063;-56
2022/11/13 05:51:45;;;;;;;;;30.50;28.25;;;;;;;;4999433;28;51159;-58
2022/11/13 05:54:29;;;;;;;;;25.50;22.00;;;;;;;;4998934;28;51225;-57
2022/11/13 05:57:14;;;;;;;;;28.50;20.75;;;;;;;;4984857;28;51079;-58
2022/11/13 05:59:58;;;;;;;;;30.75;27.25;;;;;;;;4996258;28;51206;-57
2022/11/13 06:02:43;;;;;;;;;34.75;30.00;;;;;;;;4984071;28;51139;-58
2022/11/13 06:05:27;;;;;;;;;26.00;23.00;;;;;;;;4985861;28;51095;-58
2022/11/13 06:08:11;;;;;;;;;35.50;32.00;;;;;;;;4995616;28;51108;-58
2022/11/13 06:11:00;;;;;;;;;31.50;30.00;;;;;;;;4990566;28;51209;-58
2022/11/13 06:13:45;;;;;;;;;33.50;30.25;;;;;;;;4979788;28;51178;-58
2022/11/13 06:16:33;;;;;;;;;30.50;29.50;;;;;;;;4979602;28;51250;-57
2022/11/13 06:19:17;;;;;;;;;30.25;29.75;;;;;;;;4979628;28;51193;-58
2022/11/13 06:22:02;;;;;;;;;31.00;30.00;;;;;;;;4981310;28;51138;-58
2022/11/13 06:24:47;;;;;;;;;28.75;25.00;;;;;;;;4979125;28;51188;-59
2022/11/13 06:27:32;;;;;;;;;33.25;27.50;;;;;;;;4980583;28;52490;-58
2022/11/13 06:30:17;;;;;;;;;27.50;25.50;;;;;;;;4979563;28;51068;-58
2022/11/13 06:33:01;;;;;;;;;41.25;32.00;;;;;;;;4979675;28;51422;-57
2022/11/13 06:35:46;;;;;;;;;36.75;30.00;;;;;;;;4989901;28;51024;-57
2022/11/13 06:38:31;;;;;;;;;39.00;31.25;;;;;;;;4985146;28;51099;-58
2022/11/13 06:41:16;;;;;;;;;33.50;31.25;;;;;;;;4998883;28;51645;-58
2022/11/13 06:44:01;;;;;;;;;26.75;25.00;;;;;;;;4998898;28;51153;-56
2022/11/13 06:46:45;;;;;;;;;18.00;16.50;;;;;;;;4999690;28;51163;-58
2022/11/13 06:49:29;;;;;;;;;14.25;14.00;;;;;;;;4999293;28;51032;-58
2022/11/13 06:52:14;;;;;;;;;16.50;16.50;;;;;;;;4999041;28;51467;-57
2022/11/13 06:55:00;;;;;;;;;15.00;15.00;;;;;;;;4998883;28;51127;-58
2022/11/13 06:57:44;;;;;;;;;24.25;22.00;;;;;;;;4999447;28;51051;-56
2022/11/13 07:00:28;;;;;;;;;20.25;15.25;;;;;;;;4994629;28;51039;-57
2022/11/13 07:03:17;;;;;;;;;15.75;14.75;;;;;;;;4998975;28;51083;-58
2022/11/13 07:06:05;;;;;;;;;17.75;15.00;;;;;;;;4983971;28;51115;-58
2022/11/13 07:08:50;;;;;;;;;19.50;14.25;;;;;;;;4999106;28;51118;-58
2022/11/13 07:11:34;;;;;;;;;20.00;14.25;;;;;;;;4998756;28;51356;-58
2022/11/13 07:14:18;;;;;;;;;13.50;11.50;;;;;;;;4998842;28;51162;-58
2022/11/13 07:17:03;;;;;;;;;14.75;14.75;;;;;;;;4998821;28;51502;-57
2022/11/13 07:19:47;;;;;;;;;10.75;10.75;;;;;;;;4998881;28;51070;-58
2022/11/13 07:22:32;;;;;;;;;16.25;14.25;;;;;;;;4999398;28;51080;-59
2022/11/13 07:25:16;;;;;;;;;11.50;10.50;;;;;;;;4999427;28;51265;-58
2022/11/13 07:28:00;;;;;;;;;13.25;12.50;;;;;;;;5002273;28;51186;-57
2022/11/13 07:30:45;;;;;;;;;17.50;14.00;;;;;;;;5002572;28;51395;-58
2022/11/13 07:33:29;;;;;;;;;12.50;11.00;;;;;;;;5002554;28;51118;-58
2022/11/13 07:36:14;;;;;;;;;11.75;11.00;;;;;;;;4989453;28;51359;-47
2022/11/13 07:38:58;;;;;;;;;16.75;10.75;;;;;;;;4986290;28;51256;-52
2022/11/13 07:41:42;;;;;;;;;15.25;13.00;;;;;;;;4984883;28;51368;-52
2022/11/13 07:44:27;;;;;;;;;11.00;11.00;;;;;;;;4990362;28;51091;-54
2022/11/13 07:47:11;;;;;;;;;13.00;11.50;;;;;;;;4991369;28;51182;-52
2022/11/13 07:49:56;;;;;;;;;12.50;10.00;;;;;;;;4991182;28;51462;-51
2022/11/13 07:52:40;;;;;;;;;12.00;10.75;;;;;;;;5000973;28;51129;-52
2022/11/13 07:55:25;;;;;;;;;11.25;10.50;;;;;;;;4990538;28;51174;-50
2022/11/13 07:58:10;;;;;;;;;12.75;11.25;;;;;;;;4981940;28;51375;-53
2022/11/13 08:00:54;;;;;;;;;14.00;12.25;;;;;;;;4981794;28;51427;-50
2022/11/13 08:03:38;;;;;;;;;12.75;12.75;;;;;;;;4981615;28;51070;-51
2022/11/13 08:06:22;;;;;;;;;17.50;16.50;;;;;;;;4981679;28;51540;-49
2022/11/13 08:09:07;;;;;;;;;16.50;15.50;;;;;;;;4981866;28;51152;-49
2022/11/13 08:11:51;;;;;;;;;20.00;17.00;;;;;;;;4988948;28;51177;-51
2022/11/13 08:14:35;;;;;;;;;17.75;16.00;;;;;;;;4981100;28;51410;-48
2022/11/13 08:17:20;;;;;;;;;16.75;15.25;;;;;;;;4981488;28;51006;-49
2022/11/13 08:20:05;;;;;;;;;14.50;12.75;;;;;;;;4991052;28;51335;-47
2022/11/13 08:22:49;;;;;;;;;15.75;13.50;;;;;;;;4994196;28;51158;-51
2022/11/13 08:25:34;;;;;;;;;15.00;13.00;;;;;;;;4989046;28;51499;-52
2022/11/13 08:28:18;;;;;;;;;15.00;13.00;;;;;;;;4987389;28;51296;-53
2022/11/13 08:31:03;;;;;;;;;14.00;13.00;;;;;;;;4983752;28;51550;-49
2022/11/13 08:33:47;;;;;;;;;11.00;11.00;;;;;;;;4986890;28;51115;-50
2022/11/13 08:36:32;;;;;;;;;15.50;13.25;;;;;;;;4987120;28;51106;-53
2022/11/13 08:39:16;;;;;;;;;12.00;12.00;;;;;;;;4997218;28;51117;-50
2022/11/13 08:42:01;;;;;;;;;9.75;9.75;;;;;;;;4987802;28;51144;-53
2022/11/13 08:44:45;;;;;;;;;9.75;9.75;;;;;;;;4987502;28;51304;-52
2022/11/13 08:47:29;;;;;;;;;10.25;10.00;;;;;;;;4989194;28;51179;-49
2022/11/13 08:50:14;;;;;;;;;12.50;11.50;;;;;;;;4983750;28;51438;-52
2022/11/13 08:52:59;;;;;;;;;12.50;10.50;;;;;;;;4983238;28;51153;-53
2022/11/13 08:55:43;;;;;;;;;13.50;11.00;;;;;;;;4982896;28;51401;-55
2022/11/13 08:58:28;;;;;;;;;20.75;17.00;;;;;;;;4975872;28;51281;-52
2022/11/13 09:01:12;;;;;;;;;12.50;12.50;;;;;;;;4984649;28;51261;-54
2022/11/13 09:03:57;;;;;;;;;15.25;13.25;;;;;;;;4981244;28;51618;-50
2022/11/13 09:06:42;;;;;;;;;17.75;15.25;;;;;;;;4980948;28;51036;-51
2022/11/13 09:09:26;;;;;;;;;17.50;17.50;;;;;;;;4999305;28;51332;-49
2022/11/13 09:12:11;;;;;;;;;12.75;11.50;;;;;;;;4986295;28;51626;-49
2022/11/13 09:14:55;;;;;;;;;14.25;12.75;;;;;;;;4983352;28;51277;-50
2022/11/13 09:17:39;;;;;;;;;13.25;13.25;;;;;;;;4980570;28;51118;-53
2022/11/13 09:20:24;;;;;;;;;13.75;13.50;;;;;;;;4980387;28;51413;-50
2022/11/13 09:23:08;;;;;;;;;11.00;9.50;;;;;;;;4980437;28;51182;-53
2022/11/13 09:25:53;;;;;;;;;14.75;13.75;;;;;;;;4985025;28;51094;-50
2022/11/13 09:28:37;;;;;;;;;12.75;12.25;;;;;;;;4986369;28;51707;-54
2022/11/13 09:31:22;;;;;;;;;15.75;15.75;;;;;;;;4985016;28;51308;-46
2022/11/13 09:34:07;;;;;;;;;16.00;14.25;;;;;;;;4993477;28;51142;-52
2022/11/13 09:36:51;;;;;;;;;15.00;14.25;;;;;;;;4991751;28;51078;-52
2022/11/13 09:39:35;;;;;;;;;21.75;19.00;;;;;;;;4987131;28;51209;-51
2022/11/13 09:42:23;;;;;;;;;15.75;14.00;;;;;;;;4988282;28;51202;-53
2022/11/13 09:45:12;;;;;;;;;9.50;8.25;;;;;;;;4980519;28;51349;-51
2022/11/13 09:47:58;;;;;;;;;10.25;9.00;;;;;;;;4980447;28;51103;-56
2022/11/13 09:50:42;;;;;;;;;9.00;8.00;;;;;;;;4986458;28;51179;-52
2022/11/13 09:53:31;;;;;;;;;8.25;8.25;;;;;;;;4988230;28;51433;-53
2022/11/13 09:56:33;;;;;;;;;9.50;9.50;;;;;;;;4985494;28;51125;-53
2022/11/13 09:59:35;;;;;;;;;10.00;9.00;;;;;;;;4994854;28;51141;-50
2022/11/13 10:02:24;;;;;;;;;8.00;7.75;;;;;;;;4988401;28;51061;-53
2022/11/13 10:05:23;;;;;;;;;7.50;6.00;;;;;;;;4983900;28;51477;-50
2022/11/13 10:08:13;;;;;;;;;7.00;6.00;;;;;;;;4980843;28;51162;-53
2022/11/13 10:11:01;;;;;;;;;7.25;6.25;;;;;;;;4991128;28;51363;-52
2022/11/13 10:13:50;;;;;;;;;5.50;5.50;;;;;;;;4978697;28;51144;-52
2022/11/13 10:16:53;;;;;;;;;10.00;6.25;;;;;;;;4985905;28;51176;-53
2022/11/13 10:19:56;;;;;;;;;1.00;0.00;;;;;;;;4981910;28;51521;-53
2022/11/13 10:22:41;;;;;;;;;6.00;5.00;;;;;;;;4987289;28;51301;-53
2022/11/13 10:25:27;;;;;;;;;6.50;5.00;;;;;;;;4989859;28;51187;-49
2022/11/13 10:28:14;;;;;;;;;5.50;5.50;;;;;;;;4988929;28;53184;-49
2022/11/13 10:30:58;;;;;;;;;6.75;6.50;;;;;;;;4982454;28;51597;-52
2022/11/13 10:33:43;;;;;;;;;5.50;5.50;;;;;;;;4979829;28;51174;-48
2022/11/13 10:36:33;;;;;;;;;8.75;5.00;;;;;;;;4979606;28;51369;-51
2022/11/13 10:39:18;;;;;;;;;5.75;2.00;;;;;;;;4979230;28;51099;-52
2022/11/13 10:42:02;;;;;;;;;7.25;5.50;;;;;;;;4984478;28;51936;-52
2022/11/13 10:44:57;;;;;;;;;6.75;5.00;;;;;;;;4978845;28;51417;-53
2022/11/13 10:47:48;;;;;;;;;7.75;5.00;;;;;;;;4979412;28;51131;-53
2022/11/13 10:50:33;;;;;;;;;5.25;4.75;;;;;;;;4983621;28;51062;-52
2022/11/13 10:53:18;;;;;;;;;6.00;5.75;;;;;;;;4984183;28;51271;-49
2022/11/13 10:56:11;;;;;;;;;12.50;12.50;;;;;;;;4998385;28;51458;-50
2022/11/13 10:59:03;;;;;;;;;13.00;10.25;;;;;;;;4999218;28;51102;-49
2022/11/13 11:01:48;;;;;;;;;7.25;7.25;;;;;;;;5002248;28;51284;-49
2022/11/13 11:04:32;;;;;;;;;8.00;8.00;;;;;;;;5002289;28;51217;-49
2022/11/13 11:07:19;;;;;;;;;9.00;7.00;;;;;;;;5002933;28;51091;-51
2022/11/13 11:10:06;;;;;;;;;9.00;7.50;;;;;;;;5001104;28;51376;-49
2022/11/13 11:12:59;;;;;;;;;5.00;5.00;;;;;;;;4999911;28;51040;-53
2022/11/13 11:15:58;;;;;;;;;8.00;6.75;;;;;;;;5002107;28;51073;-48
2022/11/13 11:18:58;;;;;;;;;6.25;6.25;;;;;;;;5002693;28;50965;-48
2022/11/13 11:21:43;;;;;;;;;9.00;7.75;;;;;;;;4987380;28;51482;-52
2022/11/13 11:24:31;;;;;;;;;7.75;6.25;;;;;;;;5002623;28;51082;-48
2022/11/13 11:27:24;;;;;;;;;6.75;5.25;;;;;;;;5001617;28;51368;-52
2022/11/13 11:30:17;;;;;;;;;5.75;5.75;;;;;;;;4993574;28;51269;-47
2022/11/13 11:33:01;;;;;;;;;8.50;7.50;;;;;;;;4995086;28;51371;-49
2022/11/13 11:35:51;;;;;;;;;8.25;8.25;;;;;;;;5001078;28;51175;-49
2022/11/13 11:38:39;;;;;;;;;7.75;4.75;;;;;;;;5001307;28;51099;-49
2022/11/13 11:41:28;;;;;;;;;7.00;5.00;;;;;;;;5002048;28;51327;-50
2022/11/13 11:44:30;;;;;;;;;7.00;5.25;;;;;;;;4990942;28;51126;-50
2022/11/13 11:47:15;;;;;;;;;8.00;5.50;;;;;;;;4998569;28;51000;-47
2022/11/13 11:50:00;;;;;;;;;6.25;6.25;;;;;;;;4988607;28;51178;-51
2022/11/13 11:52:55;;;;;;;;;5.00;4.25;;;;;;;;5001490;28;51144;-51
2022/11/13 11:55:43;;;;;;;;;6.50;4.50;;;;;;;;4998802;28;51229;-50
2022/11/13 11:58:27;;;;;;;;;6.25;5.50;;;;;;;;4994490;28;51260;-51
2022/11/13 12:01:35;;;;;;;;;9.00;5.25;;;;;;;;4993604;28;51119;-53
2022/11/13 12:04:31;;;;;;;;;6.25;6.25;;;;;;;;4982009;28;51164;-53
2022/11/13 12:07:36;;;;;;;;;7.25;7.00;;;;;;;;4990452;28;51216;-50
2022/11/13 12:10:35;;;;;;;;;7.50;6.25;;;;;;;;4996262;28;51149;-48
2022/11/13 12:13:31;;;;;;;;;3.75;3.75;;;;;;;;4981680;28;51450;-49
2022/11/13 12:16:15;;;;;;;;;4.25;4.25;;;;;;;;4995465;28;51270;-50
2022/11/13 12:18:59;;;;;;;;;5.75;5.75;;;;;;;;4988461;28;51296;-49
2022/11/13 12:21:54;;;;;;;;;3.75;3.75;;;;;;;;4992402;28;51313;-49
2022/11/13 12:24:53;;;;;;;;;4.25;4.25;;;;;;;;4987318;28;51000;-49
2022/11/13 12:27:50;;;;;;;;;4.00;4.00;;;;;;;;4989491;28;51444;-49
2022/11/13 12:30:44;;;;;;;;;5.00;5.00;;;;;;;;4987759;28;51440;-50
2022/11/13 12:33:34;;;;;;;;;8.50;4.75;;;;;;;;4989944;28;51286;-49
2022/11/13 12:36:19;;;;;;;;;6.00;4.50;;;;;;;;4981961;28;51223;-51
2022/11/13 12:39:27;;;;;;;;;6.75;5.00;;;;;;;;4986280;28;51502;-51
2022/11/13 12:42:33;;;;;;;;;7.50;5.00;;;;;;;;4998219;28;51162;-50
2022/11/13 12:45:25;;;;;;;;;6.50;6.00;;;;;;;;4965310;28;51156;-48
2022/11/13 12:48:09;;;;;;;;;7.75;4.00;;;;;;;;4985003;28;51501;-51
2022/11/13 12:51:01;;;;;;;;;6.50;5.50;;;;;;;;4995315;28;51222;-51
2022/11/13 12:53:53;;;;;;;;;7.25;7.25;;;;;;;;5000529;28;51490;-50
2022/11/13 12:56:37;;;;;;;;;7.75;6.75;;;;;;;;4992015;28;51469;-50
2022/11/13 12:59:22;;;;;;;;;4.75;4.75;;;;;;;;4976038;28;51220;-50
2022/11/13 13:02:06;;;;;;;;;6.25;6.25;;;;;;;;4984764;28;51210;-48
2022/11/13 13:05:09;;;;;;;;;5.75;5.25;;;;;;;;4990524;28;51582;-47
2022/11/13 13:08:03;;;;;;;;;6.00;5.75;;;;;;;;4980894;28;51112;-49
2022/11/13 13:11:03;;;;;;;;;8.75;5.00;;;;;;;;4997668;28;51384;-52
2022/11/13 13:13:47;;;;;;;;;4.00;3.50;;;;;;;;4992635;28;51083;-49
2022/11/13 13:16:32;;;;;;;;;5.25;4.75;;;;;;;;4985993;28;51209;-52
2022/11/13 13:19:24;;;;;;;;;5.75;5.75;;;;;;;;4984352;28;50996;-52
2022/11/13 13:22:23;;;;;;;;;6.00;4.25;;;;;;;;4995773;28;51383;-47
2022/11/13 13:25:23;;;;;;;;;6.75;5.00;;;;;;;;4987967;28;51078;-51
2022/11/13 13:28:07;;;;;;;;;4.75;3.00;;;;;;;;4987383;28;51173;-51
2022/11/13 13:31:03;;;;;;;;;5.00;5.00;;;;;;;;4989415;28;52140;-49
2022/11/13 13:34:05;;;;;;;;;5.00;3.00;;;;;;;;4988903;28;51217;-52
2022/11/13 13:36:49;;;;;;;;;4.75;4.75;;;;;;;;4993324;28;51942;-51
2022/11/13 13:39:33;;;;;;;;;5.00;4.25;;;;;;;;4993303;28;51226;-49
2022/11/13 13:42:36;;;;;;;;;8.25;5.00;;;;;;;;4988914;28;51147;-48
2022/11/13 13:45:39;;;;;;;;;5.00;5.00;;;;;;;;4989633;28;51412;-46
2022/11/13 13:48:24;;;;;;;;;5.50;5.00;;;;;;;;4989155;28;52002;-50
2022/11/13 13:51:14;;;;;;;;;4.75;3.50;;;;;;;;4992929;28;51059;-50
2022/11/13 13:54:00;;;;;;;;;5.25;5.25;;;;;;;;4991192;28;51146;-54
2022/11/13 13:56:45;;;;;;;;;8.50;3.25;;;;;;;;4994963;28;51548;-51
2022/11/13 13:59:31;;;;;;;;;3.50;3.50;;;;;;;;4985279;28;51071;-50
2022/11/13 14:02:21;;;;;;;;;8.00;4.00;;;;;;;;4993072;28;51413;-49
2022/11/13 14:05:26;;;;;;;;;7.00;4.25;;;;;;;;4988341;28;51156;-47
2022/11/13 14:08:17;;;;;;;;;7.00;4.75;;;;;;;;4992262;28;51012;-50
2022/11/13 14:11:03;;;;;;;;;9.00;7.00;;;;;;;;4990150;28;51400;-49
2022/11/13 14:13:47;;;;;;;;;7.50;5.75;;;;;;;;4979679;28;51055;-51
2022/11/13 14:16:32;;;;;;;;;0.50;0.00;;;;;;;;4987574;28;51161;-50
2022/11/13 14:19:17;;;;;;;;;7.00;5.00;;;;;;;;4979902;28;51055;-52
2022/11/13 14:22:03;;;;;;;;;6.75;4.00;;;;;;;;4992641;28;51332;-49
2022/11/13 14:24:50;;;;;;;;;8.25;6.75;;;;;;;;4980000;28;51120;-50
2022/11/13 14:27:36;;;;;;;;;4.50;3.00;;;;;;;;4992388;28;51376;-49
2022/11/13 14:30:24;;;;;;;;;3.25;3.25;;;;;;;;4999283;28;51385;-53
2022/11/13 14:33:12;;;;;;;;;4.75;3.00;;;;;;;;4995393;28;51334;-55
2022/11/13 14:35:57;;;;;;;;;8.00;5.25;;;;;;;;4992219;28;51402;-52
2022/11/13 14:38:45;;;;;;;;;7.00;6.25;;;;;;;;4993897;28;51544;-51
2022/11/13 14:41:34;;;;;;;;;6.00;4.25;;;;;;;;4995241;28;51861;-47
2022/11/13 14:44:30;;;;;;;;;4.25;3.25;;;;;;;;4994542;28;51089;-54
2022/11/13 14:47:21;;;;;;;;;3.75;3.75;;;;;;;;4995580;28;52147;-50
2022/11/13 14:50:26;;;;;;;;;3.50;3.00;;;;;;;;4993732;28;51372;-50
2022/11/13 14:53:11;;;;;;;;;4.00;4.00;;;;;;;;4997689;28;51423;-51
2022/11/13 14:55:56;;;;;;;;;5.25;5.25;;;;;;;;4996411;28;51208;-52
2022/11/13 14:58:45;;;;;;;;;5.25;4.00;;;;;;;;4998978;28;51314;-48
2022/11/13 15:01:31;;;;;;;;;3.25;3.25;;;;;;;;4998623;28;51145;-49
2022/11/13 15:04:15;;;;;;;;;8.25;6.25;;;;;;;;4992984;28;51387;-49
2022/11/13 15:07:01;;;;;;;;;6.75;6.00;;;;;;;;4999251;28;51177;-50
2022/11/13 15:09:46;;;;;;;;;7.00;4.25;;;;;;;;4995881;28;51072;-48
2022/11/13 15:12:30;;;;;;;;;6.50;4.50;;;;;;;;4994928;28;51503;-49
2022/11/13 15:15:17;;;;;;;;;5.00;4.00;;;;;;;;4980470;28;51149;-50
2022/11/13 15:18:02;;;;;;;;;5.50;5.50;;;;;;;;5002500;28;51091;-51
2022/11/13 15:20:46;;;;;;;;;5.50;4.00;;;;;;;;4996333;28;51145;-51
2022/11/13 15:23:30;;;;;;;;;6.00;5.00;;;;;;;;4999516;28;51206;-48
2022/11/13 15:26:15;;;;;;;;;5.50;4.50;;;;;;;;4998637;28;51241;-52
2022/11/13 15:29:00;;;;;;;;;5.00;4.00;;;;;;;;4990891;28;51543;-53
2022/11/13 15:31:45;;;;;;;;;7.50;7.50;;;;;;;;4980612;28;51259;-52
2022/11/13 15:34:30;;;;;;;;;5.00;3.75;;;;;;;;4987587;28;51213;-48
2022/11/13 15:37:15;;;;;;;;;7.50;5.50;;;;;;;;4998731;28;51361;-49
2022/11/13 15:40:00;;;;;;;;;8.50;4.75;;;;;;;;4994530;28;51106;-50
2022/11/13 15:42:45;;;;;;;;;7.25;5.50;;;;;;;;5000936;28;51377;-46
2022/11/13 15:45:29;;;;;;;;;7.25;5.00;;;;;;;;4998728;28;51107;-50
2022/11/13 15:48:13;;;;;;;;;6.50;5.00;;;;;;;;4992251;28;51060;-51
2022/11/13 15:50:57;;;;;;;;;7.25;5.00;;;;;;;;5003180;28;51297;-51
2022/11/13 15:53:43;;;;;;;;;7.50;6.50;;;;;;;;5002066;28;51496;-48
2022/11/13 15:56:28;;;;;;;;;9.50;5.50;;;;;;;;5008968;28;51017;-54
2022/11/13 15:59:13;;;;;;;;;8.75;6.50;;;;;;;;4996416;28;51054;-52
2022/11/13 16:01:58;;;;;;;;;8.25;5.25;;;;;;;;5000868;28;51458;-47
2022/11/13 16:04:43;;;;;;;;;6.50;6.25;;;;;;;;5001272;28;51213;-49
2022/11/13 16:07:30;;;;;;;;;5.25;4.25;;;;;;;;5010875;28;51439;-47
2022/11/13 16:10:15;;;;;;;;;9.75;7.00;;;;;;;;4996208;28;51038;-51
2022/11/13 16:12:59;;;;;;;;;9.00;5.75;;;;;;;;4995446;28;51177;-51
2022/11/13 16:15:47;;;;;;;;;9.50;7.25;;;;;;;;4988349;28;51475;-50
2022/11/13 16:18:32;;;;;;;;;7.75;7.00;;;;;;;;5000627;28;51209;-53
2022/11/13 16:21:17;;;;;;;;;7.00;5.00;;;;;;;;4999217;28;51135;-48
2022/11/13 16:24:02;;;;;;;;;4.75;4.75;;;;;;;;4997655;28;51190;-51
2022/11/13 16:26:50;;;;;;;;;7.25;4.75;;;;;;;;4990548;28;50498;-50